メインページ
METAR-TAF:

METAR-TAF

空港 :

シェレメーチエヴォ国際空港

モスクワ-シェレメーチエヴォ, ロシア

緯度: 55-58N, 経度: 037-25E, 海抜: 190m

現時点の気象観測

当レポートは26分前の19:00(UTC)に作成
西の風 6kt
気温 10°C
湿度 82%
気圧 1016 hPa
視程10km以上
1,500メートル以下は雲なし、積乱雲なし

METAR: UUEE 181900Z 27003MPS CAVOK 10/07 Q1016 R24C/CLRD62 R24L/CLRD62 NOSIG

時間: 22:26 (19:26 UTC)

予報

当レポートは2時間26分前の17:00(UTC)に作成
予報は18日の 18時(UTC)から 19日の 18時(UTC)まで有効
西の風 12kt
視程10km以上
高度1100ftの千切れ雲あり

TAF: UUEE 181700Z 1818/1918 27006MPS 9999 BKN011 TX21/1912Z TN09/1903Z

4,000以上の空港の気象観測と天気予報(METAR報とTAF報)

利用可能な観測所は地図上に黄色い丸と赤い丸で示す。

丸の上にカーソルを重ねると観測所名を参照できる。

次にクリックすると気象観測と天気予報を参照できる。

マップの切り替え:黒色「×」印の緑ボタンをクリックして拡大、「-」印の緑ボタンをクリックして縮小、緑色の三角印をクリックして隣りの地図に切り替え


METAR-TAF: